Joplin Regional, MO

6:53 AM CDT on September 01, 2014 (GMT -0500)
Atkinson Municipal | Change Station
CLOSE
Current Station
Airport
Location: Pittsburg,
Elevation: 951 ft
Nearby Weather Stations

Elev 951 ft 37.45 °N, 94.73 °W | Updated 18 minutes ago

Mostly Cloudy
Mostly Cloudy
66 °F
Feels Like 66 °F
N
8
Wind Variable Wind from ESE

Today
High -- | Low -- °F
--% Chance of Precip.
Yesterday
High -- | Low -- °F
Precip. -- in
6:48 AM 7:46 PM
Waxing Crescent, 40% visible
Pressure 29.92 in
Visibility 10.0 miles
Clouds Scattered Clouds 6500 ft
Scattered Clouds 8000 ft
Mostly Cloudy 9500 ft
Dew Point 66 °F
Humidity 100%
Rainfall 1.06 in
Snow Depth Not available.
UV 0 out of 12
Pollen 11.40 out of 12
Air Quality Not available.
Flu Activity Not available.
METAR KPTS 011135Z AUTO 12007KT 10SM SCT065 SCT080 BKN095 19/19 A2992 RMK AO2 LTG DSNT N P0001 T01900190

More Conditions Fewer Conditions

Pressure 29.92 in
Visibility 10.0 miles
Clouds Scattered Clouds 6500 ft
Scattered Clouds 8000 ft
Mostly Cloudy 9500 ft
Dew Point 66 °F
Humidity 100%
Rainfall 1.06 in
Snow Depth Not available.
UV 0 out of 12
Pollen 11.40 out of 12
Air Quality Not available.
Flu Activity Not available.
METAR KPTS 011135Z AUTO 12007KT 10SM SCT065 SCT080 BKN095 19/19 A2992 RMK AO2 LTG DSNT N P0001 T01900190

More Conditions Fewer Conditions

10-Day Weather Forecast

Almanac

Astronomy

Sep. 01, 2014 Rise Set
Actual Time 6:48 AM CDT 7:46 PM CDT
Civil Twilight 6:22 AM CDT 8:13 PM CDT
Nautical Twilight 5:50 AM CDT 8:44 PM CDT
Astronomical Twilight 5:17 AM CDT 9:17 PM CDT
Moon 1:26 PM CDT 11:57 PM CDT
Length of Visible Light 13h 51m
Length of Day
12h 57m
Tomorrow will be 2m 16s shorter.
Waxing Crescent, 40% of the Moon is Illuminated
Today
Waxing Crescent
Sep 2
First Quarter
Sep 8
Full
Sep 15
Last Quarter
Sep 24
New

Today's Extremes

State Highs State Lows

Community

WunderPhotos

Upload Photos

1,749,192 photos uploaded!

Nearby

Snow Depth

Station Depth Elevation
No new snow has been reported.

Earthquake Activity

City Distance Mag. Time & Date
No recent earthquake activity has been reported nearby.
Minimum magnitude displayed is 2.5.

Coastal Water Temperatures

Place Temperature
No Stations Reporting

Nearby Weather Stations